Lindsay, Texas
Current Conditions -  °F | °C
As of 10:35 AM on Saturday 25 Oct 2014 (Local Time) from KGLE Reporting Station
Clear Clear  
Wind Chill: 72°   Ceiling: Unl
Heat Index: 72°   Visibility: 10mi
Dew Point: 62°   Wind: 6mph
Humidity: 70%   Direction: 200°SSW
Pressure: 30.16"   Gusts: NA
Location:  33.64°N, 97.22°W
Report Text: KGLE 251535Z AUTO 20005KT 10SM CLR 22/17 A3016 RMK AO2 T02210165
Loading
Personal Weather Stations






























Interactive Weather Map
Tropical Storm Tracking
New forecast layout! Learn more

10-Day Weather Forecast

Advertisements
Track Severe Weather on mobile